sensor_id;sensor_type;location;lat;lon;timestamp;P1;durP1;ratioP1;P2;durP2;ratioP2
19167;SDS011;9716;53.114;18.040;2023-05-07T00:02:02;11.27;;;6.68;;
19167;SDS011;9716;53.114;18.040;2023-05-07T00:04:31;17.10;;;7.05;;
19167;SDS011;9716;53.114;18.040;2023-05-07T00:07:03;13.63;;;6.45;;
19167;SDS011;9716;53.114;18.040;2023-05-07T00:09:32;24.15;;;7.32;;
19167;SDS011;9716;53.114;18.040;2023-05-07T00:12:02;19.13;;;7.10;;
19167;SDS011;9716;53.114;18.040;2023-05-07T00:14:31;14.48;;;6.18;;
19167;SDS011;9716;53.114;18.040;2023-05-07T00:16:59;12.63;;;6.80;;
19167;SDS011;9716;53.114;18.040;2023-05-07T00:19:28;17.95;;;7.13;;
19167;SDS011;9716;53.114;18.040;2023-05-07T00:21:56;11.88;;;5.93;;
19167;SDS011;9716;53.114;18.040;2023-05-07T00:24:25;13.45;;;7.03;;
19167;SDS011;9716;53.114;18.040;2023-05-07T00:26:53;10.70;;;6.10;;
19167;SDS011;9716;53.114;18.040;2023-05-07T00:29:26;13.63;;;6.53;;
19167;SDS011;9716;53.114;18.040;2023-05-07T00:31:54;14.27;;;7.15;;
19167;SDS011;9716;53.114;18.040;2023-05-07T00:34:23;14.88;;;7.47;;
19167;SDS011;9716;53.114;18.040;2023-05-07T00:36:51;20.60;;;7.95;;
19167;SDS011;9716;53.114;18.040;2023-05-07T00:39:20;13.70;;;6.22;;
19167;SDS011;9716;53.114;18.040;2023-05-07T00:41:48;17.65;;;7.38;;
19167;SDS011;9716;53.114;18.040;2023-05-07T00:44:18;14.13;;;6.28;;
19167;SDS011;9716;53.114;18.040;2023-05-07T00:46:47;12.13;;;5.78;;
19167;SDS011;9716;53.114;18.040;2023-05-07T00:49:16;12.52;;;6.07;;
19167;SDS011;9716;53.114;18.040;2023-05-07T00:51:46;16.35;;;5.97;;
19167;SDS011;9716;53.114;18.040;2023-05-07T00:54:15;18.35;;;6.95;;
19167;SDS011;9716;53.114;18.040;2023-05-07T00:56:43;14.23;;;6.60;;
19167;SDS011;9716;53.114;18.040;2023-05-07T00:59:12;16.33;;;6.65;;
19167;SDS011;9716;53.114;18.040;2023-05-07T01:01:41;13.27;;;5.85;;
19167;SDS011;9716;53.114;18.040;2023-05-07T01:04:11;14.63;;;7.63;;
19167;SDS011;9716;53.114;18.040;2023-05-07T01:06:39;10.07;;;5.65;;
19167;SDS011;9716;53.114;18.040;2023-05-07T01:09:09;15.35;;;5.95;;
19167;SDS011;9716;53.114;18.040;2023-05-07T01:11:38;15.95;;;5.75;;
19167;SDS011;9716;53.114;18.040;2023-05-07T01:14:08;18.40;;;6.65;;
19167;SDS011;9716;53.114;18.040;2023-05-07T01:16:37;23.05;;;6.05;;
19167;SDS011;9716;53.114;18.040;2023-05-07T01:19:08;19.60;;;6.47;;
19167;SDS011;9716;53.114;18.040;2023-05-07T01:21:40;13.02;;;6.10;;
19167;SDS011;9716;53.114;18.040;2023-05-07T01:24:14;13.95;;;6.35;;
19167;SDS011;9716;53.114;18.040;2023-05-07T01:26:43;10.07;;;5.07;;
19167;SDS011;9716;53.114;18.040;2023-05-07T01:29:12;14.13;;;5.35;;
19167;SDS011;9716;53.114;18.040;2023-05-07T01:31:40;13.88;;;5.15;;
19167;SDS011;9716;53.114;18.040;2023-05-07T01:34:11;10.27;;;4.93;;
19167;SDS011;9716;53.114;18.040;2023-05-07T01:36:42;12.18;;;5.53;;
19167;SDS011;9716;53.114;18.040;2023-05-07T01:39:13;10.43;;;5.43;;
19167;SDS011;9716;53.114;18.040;2023-05-07T01:41:42;11.15;;;5.72;;
19167;SDS011;9716;53.114;18.040;2023-05-07T01:44:11;9.95;;;4.80;;
19167;SDS011;9716;53.114;18.040;2023-05-07T01:46:41;10.98;;;5.13;;
19167;SDS011;9716;53.114;18.040;2023-05-07T01:49:09;11.05;;;5.25;;
19167;SDS011;9716;53.114;18.040;2023-05-07T01:51:38;8.80;;;4.97;;
19167;SDS011;9716;53.114;18.040;2023-05-07T01:54:07;9.07;;;4.20;;
19167;SDS011;9716;53.114;18.040;2023-05-07T01:56:37;10.00;;;5.15;;
19167;SDS011;9716;53.114;18.040;2023-05-07T01:59:06;12.60;;;5.00;;
19167;SDS011;9716;53.114;18.040;2023-05-07T02:01:34;11.35;;;5.38;;
19167;SDS011;9716;53.114;18.040;2023-05-07T02:04:03;9.25;;;4.80;;
19167;SDS011;9716;53.114;18.040;2023-05-07T02:06:31;12.43;;;4.53;;
19167;SDS011;9716;53.114;18.040;2023-05-07T02:09:00;12.77;;;4.78;;
19167;SDS011;9716;53.114;18.040;2023-05-07T02:11:28;13.23;;;4.65;;
19167;SDS011;9716;53.114;18.040;2023-05-07T02:13:58;10.45;;;4.90;;
19167;SDS011;9716;53.114;18.040;2023-05-07T02:16:27;9.43;;;4.63;;
19167;SDS011;9716;53.114;18.040;2023-05-07T02:18:55;11.27;;;4.88;;
19167;SDS011;9716;53.114;18.040;2023-05-07T02:21:24;12.50;;;5.30;;
19167;SDS011;9716;53.114;18.040;2023-05-07T02:23:56;9.10;;;4.82;;
19167;SDS011;9716;53.114;18.040;2023-05-07T02:26:24;8.70;;;4.32;;
19167;SDS011;9716;53.114;18.040;2023-05-07T02:28:53;12.70;;;4.45;;
19167;SDS011;9716;53.114;18.040;2023-05-07T02:31:23;8.43;;;4.20;;
19167;SDS011;9716;53.114;18.040;2023-05-07T02:33:51;8.13;;;4.00;;
19167;SDS011;9716;53.114;18.040;2023-05-07T02:36:19;10.48;;;5.00;;
19167;SDS011;9716;53.114;18.040;2023-05-07T02:38:48;15.70;;;5.75;;
19167;SDS011;9716;53.114;18.040;2023-05-07T02:41:16;9.93;;;5.47;;
19167;SDS011;9716;53.114;18.040;2023-05-07T02:43:44;10.50;;;5.30;;
19167;SDS011;9716;53.114;18.040;2023-05-07T02:46:13;10.38;;;5.38;;
19167;SDS011;9716;53.114;18.040;2023-05-07T02:48:44;8.73;;;4.13;;
19167;SDS011;9716;53.114;18.040;2023-05-07T02:51:12;8.70;;;4.55;;
19167;SDS011;9716;53.114;18.040;2023-05-07T02:53:40;15.60;;;5.60;;
19167;SDS011;9716;53.114;18.040;2023-05-07T02:56:08;6.20;;;4.97;;
19167;SDS011;9716;53.114;18.040;2023-05-07T02:58:37;12.48;;;4.88;;
19167;SDS011;9716;53.114;18.040;2023-05-07T03:01:06;14.15;;;5.40;;
19167;SDS011;9716;53.114;18.040;2023-05-07T03:03:35;11.32;;;4.88;;
19167;SDS011;9716;53.114;18.040;2023-05-07T03:06:05;7.15;;;4.15;;
19167;SDS011;9716;53.114;18.040;2023-05-07T03:08:33;17.23;;;5.47;;
19167;SDS011;9716;53.114;18.040;2023-05-07T03:11:03;9.50;;;4.25;;
19167;SDS011;9716;53.114;18.040;2023-05-07T03:13:31;10.80;;;5.15;;
19167;SDS011;9716;53.114;18.040;2023-05-07T03:16:00;9.13;;;5.15;;
19167;SDS011;9716;53.114;18.040;2023-05-07T03:18:28;14.50;;;5.68;;
19167;SDS011;9716;53.114;18.040;2023-05-07T03:20:57;8.18;;;4.32;;
19167;SDS011;9716;53.114;18.040;2023-05-07T03:23:27;8.68;;;4.85;;
19167;SDS011;9716;53.114;18.040;2023-05-07T03:25:55;11.98;;;5.63;;
19167;SDS011;9716;53.114;18.040;2023-05-07T03:28:24;8.18;;;4.55;;
19167;SDS011;9716;53.114;18.040;2023-05-07T03:30:52;9.38;;;4.97;;
19167;SDS011;9716;53.114;18.040;2023-05-07T03:33:21;9.70;;;5.15;;
19167;SDS011;9716;53.114;18.040;2023-05-07T03:35:50;12.10;;;5.22;;
19167;SDS011;9716;53.114;18.040;2023-05-07T03:38:19;14.57;;;5.93;;
19167;SDS011;9716;53.114;18.040;2023-05-07T03:40:48;11.48;;;4.75;;
19167;SDS011;9716;53.114;18.040;2023-05-07T03:43:17;12.93;;;5.60;;
19167;SDS011;9716;53.114;18.040;2023-05-07T03:45:45;9.88;;;4.97;;
19167;SDS011;9716;53.114;18.040;2023-05-07T03:48:14;11.40;;;5.10;;
19167;SDS011;9716;53.114;18.040;2023-05-07T03:50:42;11.88;;;5.00;;
19167;SDS011;9716;53.114;18.040;2023-05-07T03:53:11;15.48;;;5.10;;
19167;SDS011;9716;53.114;18.040;2023-05-07T03:55:39;8.52;;;5.13;;
19167;SDS011;9716;53.114;18.040;2023-05-07T03:58:09;10.82;;;5.63;;
19167;SDS011;9716;53.114;18.040;2023-05-07T04:00:38;10.55;;;5.55;;
19167;SDS011;9716;53.114;18.040;2023-05-07T04:03:08;7.70;;;4.88;;
19167;SDS011;9716;53.114;18.040;2023-05-07T04:05:36;8.93;;;5.22;;
19167;SDS011;9716;53.114;18.040;2023-05-07T04:08:05;13.85;;;6.70;;
19167;SDS011;9716;53.114;18.040;2023-05-07T04:10:33;11.98;;;5.55;;
19167;SDS011;9716;53.114;18.040;2023-05-07T04:13:02;10.70;;;6.22;;
19167;SDS011;9716;53.114;18.040;2023-05-07T04:15:32;9.40;;;5.18;;
19167;SDS011;9716;53.114;18.040;2023-05-07T04:18:00;16.80;;;6.30;;
19167;SDS011;9716;53.114;18.040;2023-05-07T04:20:29;13.48;;;5.78;;
19167;SDS011;9716;53.114;18.040;2023-05-07T04:22:57;12.32;;;6.45;;
19167;SDS011;9716;53.114;18.040;2023-05-07T04:25:26;18.17;;;7.03;;
19167;SDS011;9716;53.114;18.040;2023-05-07T04:27:54;20.55;;;6.47;;
19167;SDS011;9716;53.114;18.040;2023-05-07T04:30:23;14.82;;;6.70;;
19167;SDS011;9716;53.114;18.040;2023-05-07T04:32:53;12.90;;;6.93;;
19167;SDS011;9716;53.114;18.040;2023-05-07T04:35:22;12.15;;;6.50;;
19167;SDS011;9716;53.114;18.040;2023-05-07T04:37:51;25.90;;;7.35;;
19167;SDS011;9716;53.114;18.040;2023-05-07T04:40:20;13.15;;;6.40;;
19167;SDS011;9716;53.114;18.040;2023-05-07T04:42:48;17.25;;;6.70;;
19167;SDS011;9716;53.114;18.040;2023-05-07T04:45:17;14.10;;;6.40;;
19167;SDS011;9716;53.114;18.040;2023-05-07T04:47:46;14.85;;;7.88;;
19167;SDS011;9716;53.114;18.040;2023-05-07T04:50:16;17.42;;;7.75;;
19167;SDS011;9716;53.114;18.040;2023-05-07T04:52:46;12.32;;;6.45;;
19167;SDS011;9716;53.114;18.040;2023-05-07T04:55:14;12.10;;;6.70;;
19167;SDS011;9716;53.114;18.040;2023-05-07T04:57:43;15.02;;;7.47;;
19167;SDS011;9716;53.114;18.040;2023-05-07T05:00:11;16.02;;;6.93;;
19167;SDS011;9716;53.114;18.040;2023-05-07T05:02:41;16.42;;;7.18;;
19167;SDS011;9716;53.114;18.040;2023-05-07T05:05:09;11.38;;;6.65;;
19167;SDS011;9716;53.114;18.040;2023-05-07T05:07:39;17.58;;;7.88;;
19167;SDS011;9716;53.114;18.040;2023-05-07T05:10:08;10.43;;;5.88;;
19167;SDS011;9716;53.114;18.040;2023-05-07T05:12:37;16.40;;;7.05;;
19167;SDS011;9716;53.114;18.040;2023-05-07T05:15:06;11.07;;;6.15;;
19167;SDS011;9716;53.114;18.040;2023-05-07T05:17:35;13.93;;;7.00;;
19167;SDS011;9716;53.114;18.040;2023-05-07T05:20:04;13.95;;;7.30;;
19167;SDS011;9716;53.114;18.040;2023-05-07T05:22:34;11.90;;;6.75;;
19167;SDS011;9716;53.114;18.040;2023-05-07T05:25:04;13.40;;;6.28;;
19167;SDS011;9716;53.114;18.040;2023-05-07T05:27:33;10.70;;;6.47;;
19167;SDS011;9716;53.114;18.040;2023-05-07T05:32:32;11.95;;;6.05;;
19167;SDS011;9716;53.114;18.040;2023-05-07T05:35:00;21.20;;;8.00;;
19167;SDS011;9716;53.114;18.040;2023-05-07T05:37:29;17.05;;;7.22;;
19167;SDS011;9716;53.114;18.040;2023-05-07T05:39:57;12.18;;;7.63;;
19167;SDS011;9716;53.114;18.040;2023-05-07T05:42:28;20.35;;;6.13;;
19167;SDS011;9716;53.114;18.040;2023-05-07T05:44:56;16.88;;;7.47;;
19167;SDS011;9716;53.114;18.040;2023-05-07T05:47:25;15.32;;;7.22;;
19167;SDS011;9716;53.114;18.040;2023-05-07T05:49:53;20.48;;;7.22;;
19167;SDS011;9716;53.114;18.040;2023-05-07T05:52:21;20.65;;;6.63;;
19167;SDS011;9716;53.114;18.040;2023-05-07T05:54:50;14.68;;;7.35;;
19167;SDS011;9716;53.114;18.040;2023-05-07T05:57:19;12.07;;;6.65;;
19167;SDS011;9716;53.114;18.040;2023-05-07T05:59:49;14.73;;;7.18;;
19167;SDS011;9716;53.114;18.040;2023-05-07T06:02:17;12.27;;;7.03;;
19167;SDS011;9716;53.114;18.040;2023-05-07T06:04:46;13.88;;;6.22;;
19167;SDS011;9716;53.114;18.040;2023-05-07T06:07:14;14.77;;;7.05;;
19167;SDS011;9716;53.114;18.040;2023-05-07T06:09:43;12.38;;;6.13;;
19167;SDS011;9716;53.114;18.040;2023-05-07T06:12:12;11.68;;;6.22;;
19167;SDS011;9716;53.114;18.040;2023-05-07T06:14:41;17.80;;;6.43;;
19167;SDS011;9716;53.114;18.040;2023-05-07T06:17:12;13.60;;;6.32;;
19167;SDS011;9716;53.114;18.040;2023-05-07T06:19:40;11.00;;;5.22;;
19167;SDS011;9716;53.114;18.040;2023-05-07T06:22:08;6.95;;;4.72;;
19167;SDS011;9716;53.114;18.040;2023-05-07T06:24:37;11.25;;;4.88;;
19167;SDS011;9716;53.114;18.040;2023-05-07T06:27:05;11.02;;;5.40;;
19167;SDS011;9716;53.114;18.040;2023-05-07T06:29:34;12.93;;;6.07;;
19167;SDS011;9716;53.114;18.040;2023-05-07T06:32:06;8.60;;;4.70;;
19167;SDS011;9716;53.114;18.040;2023-05-07T06:34:36;11.55;;;5.60;;
19167;SDS011;9716;53.114;18.040;2023-05-07T06:37:04;11.88;;;4.38;;
19167;SDS011;9716;53.114;18.040;2023-05-07T06:39:33;12.30;;;5.28;;
19167;SDS011;9716;53.114;18.040;2023-05-07T06:42:02;9.30;;;4.45;;
19167;SDS011;9716;53.114;18.040;2023-05-07T06:44:31;13.70;;;4.40;;
19167;SDS011;9716;53.114;18.040;2023-05-07T06:46:59;9.40;;;5.35;;
19167;SDS011;9716;53.114;18.040;2023-05-07T06:49:28;7.97;;;3.95;;
19167;SDS011;9716;53.114;18.040;2023-05-07T06:51:58;9.23;;;4.90;;
19167;SDS011;9716;53.114;18.040;2023-05-07T06:54:26;8.70;;;4.45;;
19167;SDS011;9716;53.114;18.040;2023-05-07T06:56:55;6.22;;;3.40;;
19167;SDS011;9716;53.114;18.040;2023-05-07T06:59:23;9.30;;;3.60;;
19167;SDS011;9716;53.114;18.040;2023-05-07T07:01:52;14.77;;;5.88;;
19167;SDS011;9716;53.114;18.040;2023-05-07T07:04:21;11.57;;;5.15;;
19167;SDS011;9716;53.114;18.040;2023-05-07T07:06:51;10.13;;;6.18;;
19167;SDS011;9716;53.114;18.040;2023-05-07T07:09:21;11.73;;;4.57;;
19167;SDS011;9716;53.114;18.040;2023-05-07T07:11:50;11.52;;;4.95;;
19167;SDS011;9716;53.114;18.040;2023-05-07T07:14:18;11.88;;;5.75;;
19167;SDS011;9716;53.114;18.040;2023-05-07T07:16:47;11.05;;;4.85;;
19167;SDS011;9716;53.114;18.040;2023-05-07T07:19:15;13.40;;;4.75;;
19167;SDS011;9716;53.114;18.040;2023-05-07T07:21:44;16.02;;;4.18;;
19167;SDS011;9716;53.114;18.040;2023-05-07T07:24:14;9.85;;;5.20;;
19167;SDS011;9716;53.114;18.040;2023-05-07T07:26:47;5.95;;;3.55;;
19167;SDS011;9716;53.114;18.040;2023-05-07T07:29:15;11.40;;;4.35;;
19167;SDS011;9716;53.114;18.040;2023-05-07T07:31:45;6.45;;;4.10;;
19167;SDS011;9716;53.114;18.040;2023-05-07T07:34:15;6.47;;;3.72;;
19167;SDS011;9716;53.114;18.040;2023-05-07T07:36:44;6.88;;;3.65;;
19167;SDS011;9716;53.114;18.040;2023-05-07T07:39:12;10.10;;;4.47;;
19167;SDS011;9716;53.114;18.040;2023-05-07T07:41:41;9.32;;;4.20;;
19167;SDS011;9716;53.114;18.040;2023-05-07T07:44:11;6.57;;;3.80;;
19167;SDS011;9716;53.114;18.040;2023-05-07T07:46:42;6.57;;;3.33;;
19167;SDS011;9716;53.114;18.040;2023-05-07T07:49:10;6.55;;;3.35;;
19167;SDS011;9716;53.114;18.040;2023-05-07T07:51:39;6.32;;;3.65;;
19167;SDS011;9716;53.114;18.040;2023-05-07T07:54:07;6.38;;;3.20;;
19167;SDS011;9716;53.114;18.040;2023-05-07T07:56:36;5.93;;;3.60;;
19167;SDS011;9716;53.114;18.040;2023-05-07T07:59:04;6.93;;;3.05;;
19167;SDS011;9716;53.114;18.040;2023-05-07T08:01:34;8.40;;;3.03;;
19167;SDS011;9716;53.114;18.040;2023-05-07T08:04:02;5.25;;;2.55;;
19167;SDS011;9716;53.114;18.040;2023-05-07T08:06:32;5.45;;;2.42;;
19167;SDS011;9716;53.114;18.040;2023-05-07T08:09:01;9.32;;;3.17;;
19167;SDS011;9716;53.114;18.040;2023-05-07T08:11:29;6.13;;;2.40;;
19167;SDS011;9716;53.114;18.040;2023-05-07T08:13:58;3.47;;;2.20;;
19167;SDS011;9716;53.114;18.040;2023-05-07T08:16:27;2.90;;;2.13;;
19167;SDS011;9716;53.114;18.040;2023-05-07T08:18:58;4.85;;;2.63;;
19167;SDS011;9716;53.114;18.040;2023-05-07T08:21:26;3.03;;;2.10;;
19167;SDS011;9716;53.114;18.040;2023-05-07T08:23:55;5.25;;;2.10;;
19167;SDS011;9716;53.114;18.040;2023-05-07T08:26:23;2.92;;;2.35;;
19167;SDS011;9716;53.114;18.040;2023-05-07T08:28:52;2.92;;;1.83;;
19167;SDS011;9716;53.114;18.040;2023-05-07T08:31:20;2.72;;;1.58;;
19167;SDS011;9716;53.114;18.040;2023-05-07T08:33:49;1.67;;;1.50;;
19167;SDS011;9716;53.114;18.040;2023-05-07T08:36:19;5.57;;;1.73;;
19167;SDS011;9716;53.114;18.040;2023-05-07T08:38:47;4.53;;;2.40;;
19167;SDS011;9716;53.114;18.040;2023-05-07T08:41:16;4.95;;;2.10;;
19167;SDS011;9716;53.114;18.040;2023-05-07T08:43:45;3.00;;;2.10;;
19167;SDS011;9716;53.114;18.040;2023-05-07T08:46:16;6.65;;;1.83;;
19167;SDS011;9716;53.114;18.040;2023-05-07T08:48:47;5.30;;;1.58;;
19167;SDS011;9716;53.114;18.040;2023-05-07T08:51:17;2.67;;;1.73;;
19167;SDS011;9716;53.114;18.040;2023-05-07T08:53:48;5.18;;;1.75;;
19167;SDS011;9716;53.114;18.040;2023-05-07T08:56:17;4.18;;;2.47;;
19167;SDS011;9716;53.114;18.040;2023-05-07T08:58:48;2.53;;;1.63;;
19167;SDS011;9716;53.114;18.040;2023-05-07T09:01:17;6.43;;;1.95;;
19167;SDS011;9716;53.114;18.040;2023-05-07T09:03:45;3.22;;;1.83;;
19167;SDS011;9716;53.114;18.040;2023-05-07T09:06:15;5.70;;;1.85;;
19167;SDS011;9716;53.114;18.040;2023-05-07T09:08:46;3.20;;;1.75;;
19167;SDS011;9716;53.114;18.040;2023-05-07T09:11:21;6.88;;;1.75;;
19167;SDS011;9716;53.114;18.040;2023-05-07T09:13:53;3.17;;;2.15;;
19167;SDS011;9716;53.114;18.040;2023-05-07T09:16:23;3.78;;;1.92;;
19167;SDS011;9716;53.114;18.040;2023-05-07T09:18:54;4.03;;;1.60;;
19167;SDS011;9716;53.114;18.040;2023-05-07T09:21:23;2.58;;;1.20;;
19167;SDS011;9716;53.114;18.040;2023-05-07T09:23:53;7.85;;;2.17;;
19167;SDS011;9716;53.114;18.040;2023-05-07T09:26:23;7.28;;;2.50;;
19167;SDS011;9716;53.114;18.040;2023-05-07T09:28:52;6.28;;;2.20;;
19167;SDS011;9716;53.114;18.040;2023-05-07T09:31:20;1.95;;;1.20;;
19167;SDS011;9716;53.114;18.040;2023-05-07T09:33:52;3.38;;;1.45;;
19167;SDS011;9716;53.114;18.040;2023-05-07T09:36:22;1.88;;;1.40;;
19167;SDS011;9716;53.114;18.040;2023-05-07T09:38:51;3.30;;;1.73;;
19167;SDS011;9716;53.114;18.040;2023-05-07T09:41:21;3.70;;;1.60;;
19167;SDS011;9716;53.114;18.040;2023-05-07T09:43:53;14.75;;;1.63;;
19167;SDS011;9716;53.114;18.040;2023-05-07T09:46:25;2.95;;;1.80;;
19167;SDS011;9716;53.114;18.040;2023-05-07T09:48:58;12.48;;;2.42;;
19167;SDS011;9716;53.114;18.040;2023-05-07T09:51:30;4.85;;;1.92;;
19167;SDS011;9716;53.114;18.040;2023-05-07T09:54:03;2.60;;;1.45;;
19167;SDS011;9716;53.114;18.040;2023-05-07T09:56:33;3.95;;;2.10;;
19167;SDS011;9716;53.114;18.040;2023-05-07T09:59:04;3.88;;;1.67;;
19167;SDS011;9716;53.114;18.040;2023-05-07T10:01:36;2.33;;;1.75;;
19167;SDS011;9716;53.114;18.040;2023-05-07T10:04:05;2.95;;;1.83;;
19167;SDS011;9716;53.114;18.040;2023-05-07T10:06:35;5.15;;;1.95;;
19167;SDS011;9716;53.114;18.040;2023-05-07T10:09:05;4.50;;;2.30;;
19167;SDS011;9716;53.114;18.040;2023-05-07T10:11:34;2.70;;;1.90;;
19167;SDS011;9716;53.114;18.040;2023-05-07T10:14:03;3.75;;;2.13;;
19167;SDS011;9716;53.114;18.040;2023-05-07T10:16:35;2.63;;;1.67;;
19167;SDS011;9716;53.114;18.040;2023-05-07T10:19:04;3.17;;;1.73;;
19167;SDS011;9716;53.114;18.040;2023-05-07T10:21:34;5.53;;;1.55;;
19167;SDS011;9716;53.114;18.040;2023-05-07T10:24:07;4.45;;;1.83;;
19167;SDS011;9716;53.114;18.040;2023-05-07T10:26:41;3.40;;;2.00;;
19167;SDS011;9716;53.114;18.040;2023-05-07T10:29:12;3.40;;;2.17;;
19167;SDS011;9716;53.114;18.040;2023-05-07T10:31:48;2.00;;;1.55;;
19167;SDS011;9716;53.114;18.040;2023-05-07T10:34:24;3.83;;;1.92;;
19167;SDS011;9716;53.114;18.040;2023-05-07T10:36:57;3.20;;;2.08;;
19167;SDS011;9716;53.114;18.040;2023-05-07T10:39:28;7.32;;;2.20;;
19167;SDS011;9716;53.114;18.040;2023-05-07T10:42:02;3.65;;;1.88;;
19167;SDS011;9716;53.114;18.040;2023-05-07T10:44:35;3.65;;;1.83;;
19167;SDS011;9716;53.114;18.040;2023-05-07T10:47:05;2.10;;;1.73;;
19167;SDS011;9716;53.114;18.040;2023-05-07T10:49:36;8.50;;;1.95;;
19167;SDS011;9716;53.114;18.040;2023-05-07T10:52:25;2.60;;;1.35;;
19167;SDS011;9716;53.114;18.040;2023-05-07T10:57:52;3.15;;;1.77;;
19167;SDS011;9716;53.114;18.040;2023-05-07T11:03:09;3.08;;;2.13;;
19167;SDS011;9716;53.114;18.040;2023-05-07T11:05:38;2.15;;;1.63;;
19167;SDS011;9716;53.114;18.040;2023-05-07T11:08:07;4.68;;;1.63;;
19167;SDS011;9716;53.114;18.040;2023-05-07T11:10:53;2.60;;;1.80;;
19167;SDS011;9716;53.114;18.040;2023-05-07T11:13:42;10.82;;;2.03;;
19167;SDS011;9716;53.114;18.040;2023-05-07T11:16:18;3.47;;;1.80;;
19167;SDS011;9716;53.114;18.040;2023-05-07T11:18:47;8.05;;;1.73;;
19167;SDS011;9716;53.114;18.040;2023-05-07T11:21:32;1.80;;;1.52;;
19167;SDS011;9716;53.114;18.040;2023-05-07T11:24:05;4.80;;;1.42;;
19167;SDS011;9716;53.114;18.040;2023-05-07T11:26:48;1.77;;;1.60;;
19167;SDS011;9716;53.114;18.040;2023-05-07T11:29:18;4.22;;;1.73;;
19167;SDS011;9716;53.114;18.040;2023-05-07T11:31:49;5.30;;;1.70;;
19167;SDS011;9716;53.114;18.040;2023-05-07T11:34:22;2.95;;;1.80;;
19167;SDS011;9716;53.114;18.040;2023-05-07T11:36:51;4.00;;;2.08;;
19167;SDS011;9716;53.114;18.040;2023-05-07T11:39:24;2.50;;;1.90;;
19167;SDS011;9716;53.114;18.040;2023-05-07T11:41:54;2.53;;;1.73;;
19167;SDS011;9716;53.114;18.040;2023-05-07T11:44:23;6.38;;;1.73;;
19167;SDS011;9716;53.114;18.040;2023-05-07T11:46:51;3.80;;;1.75;;
19167;SDS011;9716;53.114;18.040;2023-05-07T11:49:19;5.57;;;2.35;;
19167;SDS011;9716;53.114;18.040;2023-05-07T11:51:48;3.25;;;2.33;;
19167;SDS011;9716;53.114;18.040;2023-05-07T11:54:16;4.32;;;2.00;;
19167;SDS011;9716;53.114;18.040;2023-05-07T11:56:45;6.03;;;2.17;;
19167;SDS011;9716;53.114;18.040;2023-05-07T11:59:18;5.20;;;2.30;;
19167;SDS011;9716;53.114;18.040;2023-05-07T12:01:46;3.63;;;2.13;;
19167;SDS011;9716;53.114;18.040;2023-05-07T12:04:19;3.55;;;1.77;;
19167;SDS011;9716;53.114;18.040;2023-05-07T12:06:48;4.07;;;2.00;;
19167;SDS011;9716;53.114;18.040;2023-05-07T12:09:22;2.05;;;1.50;;
19167;SDS011;9716;53.114;18.040;2023-05-07T12:11:51;2.78;;;1.40;;
19167;SDS011;9716;53.114;18.040;2023-05-07T12:14:21;3.20;;;1.70;;
19167;SDS011;9716;53.114;18.040;2023-05-07T12:16:49;5.38;;;1.80;;
19167;SDS011;9716;53.114;18.040;2023-05-07T12:19:19;2.22;;;1.45;;
19167;SDS011;9716;53.114;18.040;2023-05-07T12:21:49;1.95;;;1.67;;
19167;SDS011;9716;53.114;18.040;2023-05-07T12:24:17;3.35;;;1.50;;
19167;SDS011;9716;53.114;18.040;2023-05-07T12:26:47;2.40;;;1.70;;
19167;SDS011;9716;53.114;18.040;2023-05-07T12:29:16;4.53;;;2.10;;
19167;SDS011;9716;53.114;18.040;2023-05-07T12:31:46;5.18;;;1.60;;
19167;SDS011;9716;53.114;18.040;2023-05-07T12:34:15;7.03;;;1.52;;
19167;SDS011;9716;53.114;18.040;2023-05-07T12:36:43;3.55;;;2.17;;
19167;SDS011;9716;53.114;18.040;2023-05-07T12:39:12;2.90;;;1.73;;
19167;SDS011;9716;53.114;18.040;2023-05-07T12:41:53;4.22;;;1.98;;
19167;SDS011;9716;53.114;18.040;2023-05-07T12:44:22;5.22;;;1.88;;
19167;SDS011;9716;53.114;18.040;2023-05-07T12:46:52;4.47;;;2.08;;
19167;SDS011;9716;53.114;18.040;2023-05-07T12:49:22;3.53;;;1.85;;
19167;SDS011;9716;53.114;18.040;2023-05-07T12:51:51;3.28;;;1.85;;
19167;SDS011;9716;53.114;18.040;2023-05-07T12:54:27;2.35;;;1.40;;
19167;SDS011;9716;53.114;18.040;2023-05-07T12:57:00;3.10;;;1.60;;
19167;SDS011;9716;53.114;18.040;2023-05-07T12:59:33;2.47;;;1.65;;
19167;SDS011;9716;53.114;18.040;2023-05-07T13:02:03;2.53;;;1.88;;
19167;SDS011;9716;53.114;18.040;2023-05-07T13:04:33;2.70;;;1.90;;
19167;SDS011;9716;53.114;18.040;2023-05-07T13:07:01;6.55;;;2.28;;
19167;SDS011;9716;53.114;18.040;2023-05-07T13:09:30;2.97;;;1.58;;
19167;SDS011;9716;53.114;18.040;2023-05-07T13:11:59;2.05;;;1.67;;
19167;SDS011;9716;53.114;18.040;2023-05-07T13:14:28;13.68;;;2.17;;
19167;SDS011;9716;53.114;18.040;2023-05-07T13:16:56;2.08;;;1.30;;
19167;SDS011;9716;53.114;18.040;2023-05-07T13:19:26;2.15;;;1.65;;
19167;SDS011;9716;53.114;18.040;2023-05-07T13:21:57;3.80;;;1.95;;
19167;SDS011;9716;53.114;18.040;2023-05-07T13:24:25;5.78;;;1.83;;
19167;SDS011;9716;53.114;18.040;2023-05-07T13:26:53;3.35;;;1.92;;
19167;SDS011;9716;53.114;18.040;2023-05-07T13:29:22;1.90;;;1.65;;
19167;SDS011;9716;53.114;18.040;2023-05-07T13:31:56;2.95;;;1.75;;
19167;SDS011;9716;53.114;18.040;2023-05-07T13:34:27;4.80;;;1.63;;
19167;SDS011;9716;53.114;18.040;2023-05-07T13:36:56;1.63;;;1.20;;
19167;SDS011;9716;53.114;18.040;2023-05-07T13:39:25;1.77;;;1.38;;
19167;SDS011;9716;53.114;18.040;2023-05-07T13:41:53;2.03;;;1.50;;
19167;SDS011;9716;53.114;18.040;2023-05-07T13:44:22;3.10;;;1.88;;
19167;SDS011;9716;53.114;18.040;2023-05-07T13:46:50;4.53;;;1.75;;
19167;SDS011;9716;53.114;18.040;2023-05-07T13:49:19;4.03;;;1.60;;
19167;SDS011;9716;53.114;18.040;2023-05-07T13:51:49;1.23;;;1.10;;
19167;SDS011;9716;53.114;18.040;2023-05-07T13:54:17;1.88;;;1.40;;
19167;SDS011;9716;53.114;18.040;2023-05-07T13:56:45;2.55;;;1.45;;
19167;SDS011;9716;53.114;18.040;2023-05-07T13:59:14;2.45;;;1.40;;
19167;SDS011;9716;53.114;18.040;2023-05-07T14:01:43;1.92;;;1.30;;
19167;SDS011;9716;53.114;18.040;2023-05-07T14:04:11;3.10;;;1.45;;
19167;SDS011;9716;53.114;18.040;2023-05-07T14:06:40;3.55;;;1.83;;
19167;SDS011;9716;53.114;18.040;2023-05-07T14:09:10;3.38;;;1.63;;
19167;SDS011;9716;53.114;18.040;2023-05-07T14:11:39;5.45;;;2.17;;
19167;SDS011;9716;53.114;18.040;2023-05-07T14:14:08;2.47;;;2.00;;
19167;SDS011;9716;53.114;18.040;2023-05-07T14:16:38;3.83;;;1.77;;
19167;SDS011;9716;53.114;18.040;2023-05-07T14:19:06;3.50;;;1.65;;
19167;SDS011;9716;53.114;18.040;2023-05-07T14:21:35;3.55;;;1.50;;
19167;SDS011;9716;53.114;18.040;2023-05-07T14:24:05;2.20;;;1.35;;
19167;SDS011;9716;53.114;18.040;2023-05-07T14:26:35;6.68;;;1.92;;
19167;SDS011;9716;53.114;18.040;2023-05-07T14:29:04;2.78;;;1.80;;
19167;SDS011;9716;53.114;18.040;2023-05-07T14:31:32;2.88;;;1.90;;
19167;SDS011;9716;53.114;18.040;2023-05-07T14:34:01;2.80;;;1.70;;
19167;SDS011;9716;53.114;18.040;2023-05-07T14:36:29;3.80;;;1.60;;
19167;SDS011;9716;53.114;18.040;2023-05-07T14:38:58;3.58;;;1.85;;
19167;SDS011;9716;53.114;18.040;2023-05-07T14:41:26;4.05;;;1.40;;
19167;SDS011;9716;53.114;18.040;2023-05-07T14:43:56;6.60;;;1.70;;
19167;SDS011;9716;53.114;18.040;2023-05-07T14:46:25;2.85;;;1.60;;
19167;SDS011;9716;53.114;18.040;2023-05-07T14:48:54;3.63;;;1.70;;
19167;SDS011;9716;53.114;18.040;2023-05-07T14:51:22;2.88;;;1.63;;
19167;SDS011;9716;53.114;18.040;2023-05-07T14:53:52;2.83;;;1.75;;
19167;SDS011;9716;53.114;18.040;2023-05-07T14:56:21;2.47;;;1.85;;
19167;SDS011;9716;53.114;18.040;2023-05-07T14:58:49;4.55;;;2.30;;
19167;SDS011;9716;53.114;18.040;2023-05-07T15:01:19;3.30;;;2.00;;
19167;SDS011;9716;53.114;18.040;2023-05-07T15:03:48;2.95;;;2.00;;
19167;SDS011;9716;53.114;18.040;2023-05-07T15:06:17;1.98;;;1.70;;